Time;durP1;ratioP1;P1;durP2;ratioP2;P2;SDS_P1;SDS_P2;PMS_P1;PMS_P2;Temp;Humidity;BMP_temperature;BMP_pressure;BME280_temperature;BME280_humidity;BME280_pressure;Samples;Min_cycle;Max_cycle;Signal;HPM_P1;HPM_P2
2022/05/21 00:00:31;;;;;;;;;;;22.30;68.50;;;;;;5003709;28;19934;-75
2022/05/21 00:02:57;;;;;;;;;;;22.30;68.50;;;;;;5001135;28;20388;-73
2022/05/21 00:05:25;;;;;;;;;;;22.30;68.50;;;;;;5002784;28;20103;-72
2022/05/21 00:07:53;;;;;;;;;;;22.30;68.50;;;;;;4997518;28;19932;-72
2022/05/21 00:10:21;;;;;;;;;;;22.20;68.50;;;;;;5002321;28;19933;-74
2022/05/21 00:12:48;;;;;;;;;;;22.20;68.60;;;;;;5002490;28;20305;-73
2022/05/21 00:15:15;;;;;;;;;;;22.10;68.60;;;;;;5001698;28;19936;-74
2022/05/21 00:17:42;;;;;;;;;;;22.20;68.70;;;;;;5003882;28;19941;-73
2022/05/21 00:20:47;;;;;;;;;;;22.10;68.80;;;;;;5004134;28;19964;-75
2022/05/21 00:22:58;;;;;;;;;;;22.10;69.60;;;;;;4999736;28;19925;-76
2022/05/21 00:25:25;;;;;;;;;;;22.10;68.90;;;;;;5006771;28;20652;-74
2022/05/21 00:27:51;;;;;;;;;;;22.00;69.00;;;;;;5002734;28;20389;-73
2022/05/21 00:30:18;;;;;;;;;;;22.00;68.80;;;;;;5003264;28;20324;-74
2022/05/21 00:32:44;;;;;;;;;;;21.90;69.60;;;;;;4999796;28;19940;-74
2022/05/21 00:35:11;;;;;;;;;;;21.90;68.90;;;;;;5001955;28;19951;-72
2022/05/21 00:37:38;;;;;;;;;;;21.80;68.90;;;;;;5004503;28;20058;-74
2022/05/21 00:40:06;;;;;;;;;;;21.80;68.80;;;;;;5000958;28;20377;-74
2022/05/21 00:42:33;;;;;;;;;;;21.80;68.80;;;;;;5004419;28;19930;-75
2022/05/21 00:44:59;;;;;;;;;;;21.80;68.80;;;;;;5000790;28;20575;-73
2022/05/21 00:47:26;;;;;;;;;;;21.70;68.60;;;;;;5000513;28;20316;-76
2022/05/21 00:49:53;;;;;;;;;;;21.70;68.60;;;;;;5003570;28;20286;-75
2022/05/21 00:52:21;;;;;;;;;;;21.70;68.50;;;;;;5001671;28;20011;-74
2022/05/21 00:54:49;;;;;;;;;;;21.60;68.40;;;;;;4993969;28;19933;-74
2022/05/21 00:57:20;;;;;;;;;;;21.60;68.40;;;;;;5001559;28;19930;-72
2022/05/21 00:59:51;;;;;;;;;;;21.50;68.30;;;;;;5002954;28;19929;-76
2022/05/21 01:02:20;;;;;;;;;;;21.50;68.30;;;;;;5003799;28;20300;-72
2022/05/21 01:04:47;;;;;;;;;;;21.50;68.30;;;;;;5002491;28;19929;-74
2022/05/21 01:07:14;;;;;;;;;;;21.40;68.30;;;;;;4997281;28;19937;-73
2022/05/21 01:09:41;;;;;;;;;;;21.40;68.30;;;;;;5001518;28;19930;-74
2022/05/21 01:12:09;;;;;;;;;;;21.40;68.30;;;;;;5002918;28;20743;-76
2022/05/21 01:14:37;;;;;;;;;;;21.40;68.30;;;;;;5004690;28;19929;-75
2022/05/21 01:17:04;;;;;;;;;;;21.30;68.30;;;;;;5000721;28;19929;-74
2022/05/21 01:19:31;;;;;;;;;;;21.30;68.30;;;;;;5001935;28;19937;-75
2022/05/21 01:21:58;;;;;;;;;;;21.30;68.30;;;;;;5002479;28;20380;-74
2022/05/21 01:24:26;;;;;;;;;;;21.20;68.30;;;;;;5000423;28;19936;-77
2022/05/21 01:26:53;;;;;;;;;;;21.20;68.30;;;;;;4999946;28;19929;-74
2022/05/21 01:29:22;;;;;;;;;;;21.10;68.30;;;;;;5002828;28;19929;-73
2022/05/21 01:31:50;;;;;;;;;;;21.10;68.30;;;;;;5001053;28;19933;-73
2022/05/21 01:34:17;;;;;;;;;;;21.10;68.30;;;;;;5004041;28;19936;-74
2022/05/21 01:36:43;;;;;;;;;;;21.10;68.30;;;;;;5001774;28;19934;-74
2022/05/21 01:39:10;;;;;;;;;;;21.00;68.20;;;;;;5004597;28;19929;-74
2022/05/21 01:41:41;;;;;;;;;;;21.00;68.10;;;;;;5002010;28;20050;-75
2022/05/21 01:46:52;;;;;;;;;;;20.90;68.80;;;;;;4997686;28;20488;-73
2022/05/21 01:49:19;;;;;;;;;;;20.90;68.00;;;;;;5001462;28;19937;-73
2022/05/21 01:51:45;;;;;;;;;;;20.80;67.90;;;;;;5000177;28;19934;-74
2022/05/21 01:54:12;;;;;;;;;;;20.80;67.90;;;;;;4997986;28;20405;-73
2022/05/21 01:56:40;;;;;;;;;;;20.80;67.70;;;;;;5002407;28;19937;-76
2022/05/21 01:59:06;;;;;;;;;;;20.80;67.70;;;;;;5000724;28;19933;-76
2022/05/21 02:01:33;;;;;;;;;;;20.70;67.60;;;;;;5000106;28;19929;-75
2022/05/21 02:03:59;;;;;;;;;;;20.70;67.70;;;;;;5002048;28;20480;-74
2022/05/21 02:06:27;;;;;;;;;;;20.60;67.50;;;;;;4999419;28;20321;-73
2022/05/21 02:08:54;;;;;;;;;;;20.70;67.50;;;;;;5001975;28;20709;-74
2022/05/21 02:11:21;;;;;;;;;;;20.60;67.30;;;;;;5004647;28;19933;-73
2022/05/21 02:13:48;;;;;;;;;;;20.60;67.20;;;;;;4999222;28;20032;-73
2022/05/21 02:16:15;;;;;;;;;;;20.50;67.20;;;;;;4996396;28;19933;-73
2022/05/21 02:18:41;;;;;;;;;;;20.50;67.00;;;;;;4997216;28;19926;-75
2022/05/21 02:21:08;;;;;;;;;;;20.50;66.90;;;;;;5001103;28;20159;-77
2022/05/21 02:23:35;;;;;;;;;;;20.50;66.80;;;;;;5000348;28;19930;-77
2022/05/21 02:26:02;;;;;;;;;;;20.40;66.70;;;;;;5001168;28;19933;-73
2022/05/21 02:28:29;;;;;;;;;;;20.40;66.60;;;;;;4998630;28;19955;-73
2022/05/21 02:30:57;;;;;;;;;;;20.30;66.60;;;;;;4998960;28;19934;-77
2022/05/21 02:33:24;;;;;;;;;;;20.30;66.50;;;;;;4997784;28;19937;-73
2022/05/21 02:35:50;;;;;;;;;;;20.30;66.50;;;;;;4997611;28;20397;-73
2022/05/21 02:41:01;;;;;;;;;;;20.30;66.50;;;;;;5000985;28;19933;-72
2022/05/21 02:43:29;;;;;;;;;;;20.20;66.40;;;;;;4996700;28;19930;-72
2022/05/21 02:45:56;;;;;;;;;;;20.20;66.50;;;;;;4999612;28;19929;-72
2022/05/21 02:48:27;;;;;;;;;;;20.10;66.30;;;;;;4998454;28;20274;-72
2022/05/21 02:50:54;;;;;;;;;;;20.10;66.40;;;;;;5001594;28;19937;-74
2022/05/21 02:53:20;;;;;;;;;;;20.10;66.50;;;;;;4994913;28;19930;-73
2022/05/21 02:55:47;;;;;;;;;;;20.00;66.40;;;;;;4999906;28;19933;-74
2022/05/21 02:58:14;;;;;;;;;;;20.00;66.50;;;;;;5000575;28;19929;-73
2022/05/21 03:00:42;;;;;;;;;;;20.00;66.60;;;;;;5001872;28;20527;-72
2022/05/21 03:03:10;;;;;;;;;;;20.00;66.60;;;;;;5000563;28;19940;-76
2022/05/21 03:05:37;;;;;;;;;;;20.00;66.60;;;;;;5000556;28;19933;-76
2022/05/21 03:10:20;;;;;;;;;;;19.90;66.70;;;;;;4999708;28;19934;-72
2022/05/21 03:10:51;;;;;;;;;;;19.90;66.90;;;;;;4999897;28;20025;-72
2022/05/21 03:13:17;;;;;;;;;;;19.80;66.80;;;;;;5006497;28;20297;-72
2022/05/21 03:15:44;;;;;;;;;;;19.80;66.70;;;;;;4994154;28;19933;-73
2022/05/21 03:18:13;;;;;;;;;;;19.80;66.80;;;;;;4998716;28;19937;-73
2022/05/21 03:20:40;;;;;;;;;;;19.80;66.90;;;;;;4994334;28;20412;-75
2022/05/21 03:23:07;;;;;;;;;;;19.70;66.90;;;;;;4997732;28;19960;-72
2022/05/21 03:25:34;;;;;;;;;;;19.70;66.40;;;;;;4999972;28;19925;-72
2022/05/21 03:28:00;;;;;;;;;;;19.60;67.00;;;;;;4999769;28;19933;-73
2022/05/21 03:30:28;;;;;;;;;;;19.60;67.10;;;;;;4997682;28;19933;-73
2022/05/21 03:32:55;;;;;;;;;;;19.60;67.10;;;;;;4998135;28;20005;-75
2022/05/21 03:35:23;;;;;;;;;;;19.60;67.10;;;;;;4997135;28;19930;-73
2022/05/21 03:37:52;;;;;;;;;;;19.50;67.20;;;;;;5001292;28;20042;-72
2022/05/21 03:40:20;;;;;;;;;;;19.40;67.20;;;;;;4995835;28;19936;-72
2022/05/21 03:42:46;;;;;;;;;;;19.50;67.00;;;;;;5000667;28;20400;-72
2022/05/21 03:45:14;;;;;;;;;;;19.40;67.00;;;;;;4999172;28;19934;-73
2022/05/21 03:47:41;;;;;;;;;;;19.40;67.00;;;;;;5003732;28;19948;-73
2022/05/21 03:50:08;;;;;;;;;;;19.30;66.90;;;;;;4995939;28;20378;-75
2022/05/21 03:52:36;;;;;;;;;;;19.30;67.00;;;;;;5002433;28;20416;-73
2022/05/21 03:55:03;;;;;;;;;;;19.30;67.10;;;;;;5001849;28;19938;-75
2022/05/21 03:57:29;;;;;;;;;;;19.20;67.00;;;;;;5002051;28;19934;-73
2022/05/21 03:59:57;;;;;;;;;;;19.20;67.10;;;;;;5002737;28;19999;-72
2022/05/21 04:02:24;;;;;;;;;;;19.20;66.90;;;;;;5003520;28;19933;-74
2022/05/21 04:04:50;;;;;;;;;;;19.10;66.90;;;;;;5001500;28;19933;-73
2022/05/21 04:07:17;;;;;;;;;;;19.10;66.80;;;;;;5002101;28;19929;-74
2022/05/21 04:09:44;;;;;;;;;;;19.00;67.00;;;;;;5000468;28;19929;-75
2022/05/21 04:12:11;;;;;;;;;;;19.00;67.00;;;;;;5004855;28;19925;-72
2022/05/21 04:14:38;;;;;;;;;;;19.00;67.00;;;;;;4998205;28;19929;-74
2022/05/21 04:17:09;;;;;;;;;;;19.00;67.00;;;;;;4999078;28;20615;-74
2022/05/21 04:19:35;;;;;;;;;;;18.90;66.60;;;;;;5004602;28;19933;-73
2022/05/21 04:22:02;;;;;;;;;;;18.90;66.80;;;;;;5004598;28;19929;-75
2022/05/21 04:24:28;;;;;;;;;;;18.90;66.80;;;;;;5001463;28;19940;-72
2022/05/21 04:26:56;;;;;;;;;;;18.80;66.70;;;;;;4999935;28;19933;-72
2022/05/21 04:29:23;;;;;;;;;;;18.80;66.80;;;;;;5000246;28;19929;-74
2022/05/21 04:31:49;;;;;;;;;;;18.70;66.80;;;;;;5001882;28;20322;-72
2022/05/21 04:34:16;;;;;;;;;;;18.70;66.70;;;;;;4999275;28;20321;-71
2022/05/21 04:36:43;;;;;;;;;;;18.70;66.80;;;;;;4997450;28;19929;-72
2022/05/21 04:39:09;;;;;;;;;;;18.60;66.80;;;;;;4998654;28;20457;-75
2022/05/21 04:41:36;;;;;;;;;;;18.60;66.90;;;;;;5000850;28;19936;-72
2022/05/21 04:44:07;;;;;;;;;;;18.60;67.00;;;;;;5000375;28;19936;-73
2022/05/21 04:46:35;;;;;;;;;;;18.60;67.00;;;;;;5000394;28;19929;-72
2022/05/21 04:49:01;;;;;;;;;;;18.50;67.00;;;;;;5002003;28;19937;-74
2022/05/21 04:51:28;;;;;;;;;;;18.50;67.10;;;;;;4999477;28;19933;-72
2022/05/21 04:53:55;;;;;;;;;;;18.50;67.20;;;;;;5001353;28;19934;-71
2022/05/21 04:56:22;;;;;;;;;;;18.50;67.40;;;;;;5001288;28;19925;-73
2022/05/21 04:58:49;;;;;;;;;;;18.40;67.40;;;;;;4998720;28;20336;-71
2022/05/21 05:01:17;;;;;;;;;;;18.40;67.50;;;;;;5001895;28;20389;-72
2022/05/21 05:03:43;;;;;;;;;;;18.40;67.50;;;;;;4994265;28;19930;-72
2022/05/21 05:06:10;;;;;;;;;;;18.40;67.60;;;;;;4998483;28;19926;-72
2022/05/21 05:08:37;;;;;;;;;;;18.40;67.70;;;;;;4999243;28;19933;-72
2022/05/21 05:11:03;;;;;;;;;;;18.30;67.60;;;;;;4996824;28;19991;-73
2022/05/21 05:13:30;;;;;;;;;;;18.30;67.70;;;;;;4998852;28;19936;-72
2022/05/21 05:15:57;;;;;;;;;;;18.30;67.80;;;;;;4999811;28;19934;-72
2022/05/21 05:18:27;;;;;;;;;;;18.30;67.80;;;;;;5000192;28;19936;-72
2022/05/21 05:20:53;;;;;;;;;;;18.30;68.00;;;;;;5002956;28;19980;-75
2022/05/21 05:23:20;;;;;;;;;;;18.20;68.00;;;;;;5002927;28;19940;-73
2022/05/21 05:25:47;;;;;;;;;;;18.20;68.10;;;;;;5001257;28;19929;-73
2022/05/21 05:28:15;;;;;;;;;;;18.20;68.20;;;;;;4998729;28;20565;-73
2022/05/21 05:30:42;;;;;;;;;;;18.20;68.20;;;;;;4992352;28;19968;-73
2022/05/21 05:33:08;;;;;;;;;;;18.10;68.20;;;;;;4997510;28;19929;-75
2022/05/21 05:35:36;;;;;;;;;;;18.10;68.10;;;;;;4996348;28;19937;-76
2022/05/21 05:38:07;;;;;;;;;;;18.10;68.20;;;;;;5001492;28;19929;-73
2022/05/21 05:40:33;;;;;;;;;;;18.10;68.30;;;;;;5001064;28;19930;-75
2022/05/21 05:43:00;;;;;;;;;;;18.10;68.30;;;;;;5000366;28;19937;-73
2022/05/21 05:45:27;;;;;;;;;;;18.10;68.50;;;;;;5001165;28;20633;-73
2022/05/21 05:47:53;;;;;;;;;;;18.10;68.60;;;;;;5001721;28;20381;-76
2022/05/21 05:50:20;;;;;;;;;;;18.10;68.50;;;;;;5001404;28;20333;-73
2022/05/21 05:52:48;;;;;;;;;;;18.00;68.40;;;;;;4999334;28;19930;-73
2022/05/21 05:55:14;;;;;;;;;;;18.00;68.30;;;;;;5001255;28;19929;-73
2022/05/21 05:57:41;;;;;;;;;;;18.00;68.30;;;;;;4996721;28;19933;-73
2022/05/21 06:00:07;;;;;;;;;;;18.00;68.20;;;;;;4996995;28;20309;-77
2022/05/21 06:05:20;;;;;;;;;;;18.00;68.10;;;;;;4999647;28;20015;-75
2022/05/21 06:07:48;;;;;;;;;;;18.00;68.00;;;;;;4999120;28;19934;-74
2022/05/21 06:10:16;;;;;;;;;;;18.00;68.00;;;;;;5001026;28;19937;-74
2022/05/21 06:12:43;;;;;;;;;;;18.00;68.30;;;;;;5000346;28;19929;-73
2022/05/21 06:15:10;;;;;;;;;;;18.00;67.70;;;;;;4997535;28;20465;-74
2022/05/21 06:17:37;;;;;;;;;;;18.00;67.70;;;;;;5002902;28;19936;-77
2022/05/21 06:20:04;;;;;;;;;;;18.00;67.50;;;;;;5006613;28;19936;-76
2022/05/21 06:22:32;;;;;;;;;;;18.00;67.40;;;;;;4997109;28;20353;-74
2022/05/21 06:25:00;;;;;;;;;;;18.00;67.20;;;;;;5000776;28;20401;-74
2022/05/21 06:27:26;;;;;;;;;;;18.00;67.20;;;;;;4999115;28;19929;-76
2022/05/21 06:29:53;;;;;;;;;;;18.00;67.10;;;;;;4997661;28;19936;-75
2022/05/21 06:32:19;;;;;;;;;;;18.00;67.00;;;;;;4998121;28;19929;-74
2022/05/21 06:34:46;;;;;;;;;;;18.00;66.90;;;;;;4997166;28;19929;-74
2022/05/21 06:37:13;;;;;;;;;;;18.00;67.00;;;;;;4997838;28;19976;-74
2022/05/21 06:39:40;;;;;;;;;;;18.00;66.90;;;;;;4998139;28;19933;-75
2022/05/21 06:42:09;;;;;;;;;;;18.00;66.90;;;;;;5001100;28;19936;-76
2022/05/21 06:44:35;;;;;;;;;;;18.00;66.70;;;;;;4997269;28;19941;-74
2022/05/21 06:47:02;;;;;;;;;;;18.00;66.60;;;;;;5000601;28;19941;-74
2022/05/21 06:49:28;;;;;;;;;;;18.00;66.40;;;;;;4997845;28;19929;-74
2022/05/21 06:51:55;;;;;;;;;;;18.00;66.20;;;;;;5002186;28;19933;-74
2022/05/21 06:54:22;;;;;;;;;;;18.00;66.00;;;;;;5000749;28;20488;-76
2022/05/21 06:56:49;;;;;;;;;;;18.10;65.80;;;;;;4993758;28;20673;-73
2022/05/21 06:59:17;;;;;;;;;;;18.00;65.80;;;;;;4998904;28;20456;-73
2022/05/21 07:01:43;;;;;;;;;;;18.00;66.50;;;;;;5000646;28;19929;-75
2022/05/21 07:04:10;;;;;;;;;;;18.00;65.60;;;;;;4999739;28;20684;-74
2022/05/21 07:09:21;;;;;;;;;;;18.10;65.70;;;;;;4996867;28;19986;-74
2022/05/21 07:11:48;;;;;;;;;;;18.10;65.60;;;;;;5000188;28;19930;-74
2022/05/21 07:14:14;;;;;;;;;;;18.10;65.70;;;;;;5001737;28;20032;-73
2022/05/21 07:16:43;;;;;;;;;;;18.10;65.70;;;;;;4999480;28;20381;-72
2022/05/21 07:19:09;;;;;;;;;;;18.10;65.60;;;;;;5005911;28;19930;-72
2022/05/21 07:21:36;;;;;;;;;;;18.10;65.60;;;;;;4999060;28;20390;-74
2022/05/21 07:24:03;;;;;;;;;;;18.10;65.40;;;;;;5002428;28;20685;-72
2022/05/21 07:26:29;;;;;;;;;;;18.10;65.40;;;;;;5009956;28;19929;-76
2022/05/21 07:28:58;;;;;;;;;;;18.10;65.30;;;;;;5013193;28;19936;-76
2022/05/21 07:31:25;;;;;;;;;;;18.20;65.40;;;;;;5009437;28;19960;-77
2022/05/21 07:33:53;;;;;;;;;;;18.20;65.40;;;;;;5010775;28;20429;-74
2022/05/21 07:36:20;;;;;;;;;;;18.20;65.40;;;;;;5007313;28;19968;-78
2022/05/21 07:38:47;;;;;;;;;;;18.20;65.30;;;;;;5009669;28;20321;-75
2022/05/21 07:41:13;;;;;;;;;;;18.20;65.30;;;;;;5010617;28;19929;-76
2022/05/21 07:43:40;;;;;;;;;;;18.30;65.30;;;;;;5005456;28;19945;-78
2022/05/21 07:46:07;;;;;;;;;;;18.30;65.30;;;;;;5010660;28;19933;-77
2022/05/21 07:48:34;;;;;;;;;;;18.30;65.20;;;;;;5003582;28;19984;-78
2022/05/21 07:51:03;;;;;;;;;;;18.30;65.10;;;;;;5005960;28;19929;-76
2022/05/21 07:53:31;;;;;;;;;;;18.30;64.90;;;;;;5002811;28;20093;-76
2022/05/21 07:55:58;;;;;;;;;;;18.30;64.80;;;;;;5002399;28;19929;-75
2022/05/21 07:58:26;;;;;;;;;;;18.30;64.90;;;;;;5000343;28;20519;-76
2022/05/21 08:00:53;;;;;;;;;;;18.30;64.80;;;;;;5008375;28;20405;-75
2022/05/21 08:03:20;;;;;;;;;;;18.30;64.80;;;;;;5007198;28;20418;-74
2022/05/21 08:05:46;;;;;;;;;;;18.40;64.70;;;;;;5007360;28;19933;-75
2022/05/21 08:08:14;;;;;;;;;;;18.40;64.70;;;;;;5011747;28;19933;-75
2022/05/21 08:10:43;;;;;;;;;;;18.30;64.40;;;;;;5005676;28;19934;-74
2022/05/21 08:13:10;;;;;;;;;;;18.40;64.50;;;;;;5003910;28;20344;-77
2022/05/21 08:15:37;;;;;;;;;;;18.40;64.40;;;;;;5004907;28;19933;-76
2022/05/21 08:18:04;;;;;;;;;;;18.40;64.50;;;;;;5008212;28;20020;-77
2022/05/21 08:20:31;;;;;;;;;;;18.40;64.40;;;;;;5012108;28;20404;-73
2022/05/21 08:28:28;;;;;;;;;;;18.50;63.90;;;;;;5002407;28;19937;-74
2022/05/21 08:30:54;;;;;;;;;;;18.50;63.80;;;;;;4999374;28;19933;-76
2022/05/21 08:33:22;;;;;;;;;;;18.50;63.80;;;;;;5005655;28;20635;-75
2022/05/21 08:35:50;;;;;;;;;;;18.60;64.00;;;;;;5003819;28;19929;-73
2022/05/21 08:38:17;;;;;;;;;;;18.60;63.90;;;;;;5003847;28;19969;-78
2022/05/21 08:40:51;;;;;;;;;;;18.60;63.90;;;;;;4999613;28;20555;-79
2022/05/21 08:43:22;;;;;;;;;;;18.60;63.80;;;;;;5004250;28;19933;-76
2022/05/21 08:46:06;;;;;;;;;;;18.70;63.60;;;;;;4999953;28;19933;-76
2022/05/21 08:48:32;;;;;;;;;;;18.70;63.60;;;;;;5002413;28;19929;-74
2022/05/21 08:51:00;;;;;;;;;;;18.70;63.60;;;;;;5004882;28;19936;-75
2022/05/21 08:53:27;;;;;;;;;;;18.80;63.60;;;;;;5000169;28;20019;-75
2022/05/21 08:55:57;;;;;;;;;;;18.80;63.50;;;;;;5000940;28;19933;-77
2022/05/21 08:58:27;;;;;;;;;;;18.80;63.40;;;;;;5000350;28;19934;-74
2022/05/21 09:00:55;;;;;;;;;;;18.90;63.50;;;;;;5004623;28;19961;-76
2022/05/21 09:03:23;;;;;;;;;;;18.90;63.10;;;;;;4995842;28;20461;-77
2022/05/21 09:05:54;;;;;;;;;;;18.90;62.90;;;;;;4997252;28;19933;-74
2022/05/21 09:08:23;;;;;;;;;;;19.00;63.10;;;;;;5001453;28;19991;-77
2022/05/21 09:10:52;;;;;;;;;;;19.00;63.10;;;;;;5004330;28;19934;-75
2022/05/21 09:13:26;;;;;;;;;;;19.00;62.80;;;;;;5004098;28;19930;-73
2022/05/21 09:18:37;;;;;;;;;;;19.10;62.60;;;;;;5008920;28;19936;-75
2022/05/21 09:21:06;;;;;;;;;;;19.10;62.50;;;;;;5004674;28;19933;-76
2022/05/21 09:23:53;;;;;;;;;;;19.10;62.20;;;;;;5006574;28;20385;-76
2022/05/21 09:26:21;;;;;;;;;;;19.20;61.90;;;;;;5001950;28;19930;-76
2022/05/21 09:28:49;;;;;;;;;;;19.20;61.90;;;;;;5006109;28;19930;-79
2022/05/21 09:31:23;;;;;;;;;;;19.30;61.60;;;;;;5005799;28;19933;-78
2022/05/21 09:33:49;;;;;;;;;;;19.30;61.30;;;;;;5010068;28;19930;-73
2022/05/21 09:36:18;;;;;;;;;;;19.40;61.10;;;;;;5005316;28;19968;-75
2022/05/21 09:38:52;;;;;;;;;;;19.40;60.80;;;;;;5006658;28;19983;-80
2022/05/21 09:41:20;;;;;;;;;;;19.40;60.90;;;;;;5005644;28;19926;-77
2022/05/21 09:46:36;;;;;;;;;;;19.50;59.90;;;;;;5000726;28;19941;-78
2022/05/21 09:49:14;;;;;;;;;;;19.60;59.80;;;;;;5002663;28;19930;-76
2022/05/21 09:51:41;;;;;;;;;;;19.60;59.60;;;;;;5002510;28;19934;-78
2022/05/21 09:54:19;;;;;;;;;;;19.70;59.60;;;;;;5006855;28;20216;-76
2022/05/21 09:56:48;;;;;;;;;;;19.70;59.60;;;;;;5006366;28;19971;-76
2022/05/21 09:59:17;;;;;;;;;;;19.80;59.40;;;;;;5013617;28;19932;-76
2022/05/21 10:01:44;;;;;;;;;;;19.80;59.20;;;;;;5004204;28;19995;-73
2022/05/21 10:04:12;;;;;;;;;;;19.90;59.00;;;;;;4999843;28;19933;-74
2022/05/21 10:06:42;;;;;;;;;;;19.90;58.90;;;;;;4992122;28;20475;-76
2022/05/21 10:11:57;;;;;;;;;;;20.00;59.20;;;;;;4990699;28;19932;-78
2022/05/21 10:14:27;;;;;;;;;;;20.10;58.50;;;;;;4994210;28;19940;-75
2022/05/21 10:16:56;;;;;;;;;;;20.10;58.30;;;;;;4991497;28;19929;-74
2022/05/21 10:19:25;;;;;;;;;;;20.20;58.20;;;;;;4992760;28;19934;-74
2022/05/21 10:21:59;;;;;;;;;;;20.20;58.10;;;;;;4994771;28;20071;-75
2022/05/21 10:24:28;;;;;;;;;;;20.30;57.90;;;;;;5003049;28;20429;-76
2022/05/21 10:26:58;;;;;;;;;;;20.30;57.70;;;;;;5001282;28;19944;-77
2022/05/21 10:29:35;;;;;;;;;;;20.40;58.00;;;;;;4996687;28;19947;-76
2022/05/21 10:32:07;;;;;;;;;;;20.40;57.70;;;;;;4992492;28;19956;-77
2022/05/21 10:34:45;;;;;;;;;;;20.50;57.20;;;;;;4991640;28;19929;-75
2022/05/21 10:37:20;;;;;;;;;;;20.60;56.90;;;;;;4995133;28;19933;-77
2022/05/21 10:40:07;;;;;;;;;;;20.60;57.00;;;;;;4995228;28;20472;-76
2022/05/21 10:42:41;;;;;;;;;;;20.70;57.10;;;;;;4998596;28;19936;-75
2022/05/21 10:45:18;;;;;;;;;;;20.70;57.00;;;;;;4995953;28;19934;-76
2022/05/21 10:47:54;;;;;;;;;;;20.80;56.90;;;;;;4996494;28;19936;-75
2022/05/21 10:50:27;;;;;;;;;;;20.80;56.80;;;;;;4994376;28;19937;-74
2022/05/21 10:53:17;;;;;;;;;;;20.90;56.90;;;;;;4996483;28;19929;-77
2022/05/21 10:55:48;;;;;;;;;;;20.90;56.10;;;;;;4995418;28;19930;-75
2022/05/21 10:58:33;;;;;;;;;;;21.00;56.10;;;;;;5004291;28;19930;-73
2022/05/21 11:01:08;;;;;;;;;;;21.10;56.30;;;;;;4999434;28;20802;-68
2022/05/21 11:03:41;;;;;;;;;;;21.20;56.10;;;;;;4994304;28;19926;-71
2022/05/21 11:06:15;;;;;;;;;;;21.20;55.80;;;;;;5000139;28;20066;-68
2022/05/21 11:08:46;;;;;;;;;;;21.30;55.80;;;;;;5000307;28;19936;-68
2022/05/21 11:11:29;;;;;;;;;;;21.30;55.70;;;;;;5000343;28;19929;-69
2022/05/21 11:13:59;;;;;;;;;;;21.30;56.10;;;;;;4997324;28;20441;-68
2022/05/21 11:16:30;;;;;;;;;;;21.40;56.00;;;;;;5001218;28;19929;-72
2022/05/21 11:18:58;;;;;;;;;;;21.40;55.50;;;;;;5002858;28;20040;-69
2022/05/21 11:21:27;;;;;;;;;;;21.50;56.40;;;;;;5003329;28;19968;-70
2022/05/21 11:23:56;;;;;;;;;;;21.50;55.80;;;;;;4994489;28;19984;-69
2022/05/21 11:26:27;;;;;;;;;;;21.50;55.40;;;;;;5001929;28;19929;-70
2022/05/21 11:28:55;;;;;;;;;;;21.60;55.70;;;;;;4996225;28;19940;-72
2022/05/21 11:39:42;;;;;;;;;;;21.80;54.40;;;;;;4989248;28;20398;-70
2022/05/21 11:42:11;;;;;;;;;;;21.80;54.60;;;;;;4998924;28;19929;-70
2022/05/21 11:44:58;;;;;;;;;;;21.90;54.10;;;;;;4997227;28;19925;-72
2022/05/21 11:47:33;;;;;;;;;;;22.00;54.40;;;;;;5001482;28;20443;-71
2022/05/21 11:50:10;;;;;;;;;;;22.00;54.70;;;;;;4996824;28;19933;-69
2022/05/21 11:52:57;;;;;;;;;;;22.00;54.60;;;;;;4997671;28;19930;-71
2022/05/21 11:55:24;;;;;;;;;;;22.10;55.40;;;;;;4999828;28;20380;-70
2022/05/21 11:57:53;;;;;;;;;;;22.20;54.70;;;;;;5001472;28;20368;-69
2022/05/21 12:00:39;;;;;;;;;;;22.20;53.70;;;;;;4996360;28;19929;-68
2022/05/21 12:03:13;;;;;;;;;;;22.20;54.30;;;;;;5000073;28;20424;-70
2022/05/21 12:05:53;;;;;;;;;;;22.30;54.80;;;;;;5003737;28;19933;-70
2022/05/21 12:08:36;;;;;;;;;;;22.30;54.90;;;;;;4998577;28;20408;-66
2022/05/21 12:11:05;;;;;;;;;;;22.40;53.80;;;;;;5004276;28;19929;-68
2022/05/21 12:13:59;;;;;;;;;;;22.40;53.70;;;;;;5001474;28;19936;-70
2022/05/21 12:16:41;;;;;;;;;;;22.40;54.00;;;;;;5001985;28;20039;-73
2022/05/21 12:19:08;;;;;;;;;;;22.40;54.20;;;;;;4999162;28;19933;-72
2022/05/21 12:21:53;;;;;;;;;;;22.50;54.00;;;;;;5004566;28;20639;-71
2022/05/21 12:24:35;;;;;;;;;;;22.50;53.50;;;;;;5002191;28;19934;-69
2022/05/21 12:27:03;;;;;;;;;;;22.50;54.40;;;;;;5004423;28;19985;-70
2022/05/21 12:29:31;;;;;;;;;;;22.60;55.10;;;;;;5000739;28;20035;-71
2022/05/21 12:31:59;;;;;;;;;;;22.60;53.60;;;;;;5002107;28;19933;-66
2022/05/21 12:34:35;;;;;;;;;;;22.60;53.40;;;;;;4999399;28;19934;-69
2022/05/21 12:37:07;;;;;;;;;;;22.70;54.00;;;;;;5003074;28;20388;-72
2022/05/21 12:39:36;;;;;;;;;;;22.70;54.00;;;;;;5000551;28;19929;-70
2022/05/21 12:42:08;;;;;;;;;;;22.70;53.70;;;;;;5002995;28;20032;-69
2022/05/21 12:44:38;;;;;;;;;;;22.80;54.40;;;;;;5002058;28;19934;-68
2022/05/21 12:47:05;;;;;;;;;;;22.80;54.00;;;;;;4998145;28;19933;-69
2022/05/21 12:49:32;;;;;;;;;;;22.80;53.60;;;;;;4996871;28;19925;-72
2022/05/21 12:51:59;;;;;;;;;;;22.80;53.50;;;;;;5002930;28;19934;-69
2022/05/21 12:54:26;;;;;;;;;;;22.90;52.50;;;;;;5002872;28;20405;-70
2022/05/21 12:56:55;;;;;;;;;;;23.00;53.40;;;;;;4996284;28;19932;-69
2022/05/21 12:59:23;;;;;;;;;;;23.00;52.70;;;;;;4999598;28;19930;-69
2022/05/21 13:01:54;;;;;;;;;;;23.00;52.00;;;;;;5004912;28;19933;-69
2022/05/21 13:04:22;;;;;;;;;;;23.10;51.60;;;;;;5005365;28;20016;-71
2022/05/21 13:06:51;;;;;;;;;;;23.10;52.40;;;;;;5001046;28;19929;-71
2022/05/21 13:09:18;;;;;;;;;;;23.20;53.30;;;;;;4999675;28;19926;-67
2022/05/21 13:11:45;;;;;;;;;;;23.20;51.90;;;;;;5001417;28;20554;-70
2022/05/21 13:14:17;;;;;;;;;;;23.30;52.50;;;;;;4996224;28;19933;-70
2022/05/21 13:16:48;;;;;;;;;;;23.30;52.40;;;;;;5004423;28;19985;-69
2022/05/21 13:19:21;;;;;;;;;;;23.40;52.30;;;;;;4996221;28;19929;-69
2022/05/21 13:21:52;;;;;;;;;;;23.40;52.90;;;;;;5000278;28;19929;-74
2022/05/21 13:24:27;;;;;;;;;;;23.40;53.10;;;;;;5000127;28;19930;-70
2022/05/21 13:27:04;;;;;;;;;;;23.40;52.90;;;;;;4996765;28;19930;-70
2022/05/21 13:29:32;;;;;;;;;;;23.50;52.70;;;;;;4993446;28;19958;-74
2022/05/21 13:32:13;;;;;;;;;;;23.50;51.70;;;;;;4994855;28;19934;-71
2022/05/21 13:34:40;;;;;;;;;;;23.50;50.50;;;;;;4993441;28;19929;-71
2022/05/21 13:37:07;;;;;;;;;;;23.60;50.60;;;;;;4994494;28;19934;-70
2022/05/21 13:39:34;;;;;;;;;;;23.60;50.20;;;;;;4996175;28;20317;-70
2022/05/21 13:42:05;;;;;;;;;;;23.70;51.40;;;;;;5002150;28;19953;-67
2022/05/21 13:44:35;;;;;;;;;;;23.80;51.60;;;;;;4999697;28;19936;-68
2022/05/21 13:47:03;;;;;;;;;;;23.80;51.00;;;;;;4992147;28;19929;-71
2022/05/21 13:49:31;;;;;;;;;;;23.80;49.90;;;;;;4990831;28;19937;-73
2022/05/21 13:51:58;;;;;;;;;;;23.90;51.40;;;;;;4998256;28;19930;-72
2022/05/21 13:54:26;;;;;;;;;;;24.00;50.40;;;;;;4996557;28;20596;-69
2022/05/21 13:57:02;;;;;;;;;;;24.00;50.40;;;;;;5001242;28;19933;-69
2022/05/21 13:59:28;;;;;;;;;;;24.10;51.60;;;;;;4997198;28;19930;-70
2022/05/21 14:01:57;;;;;;;;;;;24.20;50.10;;;;;;5001207;28;20499;-71
2022/05/21 14:04:32;;;;;;;;;;;24.20;50.70;;;;;;5001462;28;19929;-67
2022/05/21 14:06:59;;;;;;;;;;;24.20;50.30;;;;;;5002328;28;21022;-69
2022/05/21 14:09:26;;;;;;;;;;;24.30;50.00;;;;;;4996077;28;20702;-66
2022/05/21 14:11:55;;;;;;;;;;;24.30;49.60;;;;;;5001279;28;19929;-73
2022/05/21 14:14:23;;;;;;;;;;;24.40;49.80;;;;;;4995017;28;19929;-67
2022/05/21 14:16:52;;;;;;;;;;;24.40;50.00;;;;;;4998840;28;19930;-67
2022/05/21 14:19:26;;;;;;;;;;;24.50;50.50;;;;;;5002292;28;19929;-70
2022/05/21 14:22:00;;;;;;;;;;;24.50;49.50;;;;;;4998489;28;20452;-71
2022/05/21 14:24:28;;;;;;;;;;;24.60;49.90;;;;;;4997466;28;19940;-69
2022/05/21 14:26:55;;;;;;;;;;;24.60;49.50;;;;;;5002366;28;19932;-66
2022/05/21 14:29:32;;;;;;;;;;;24.70;49.60;;;;;;5000502;28;19929;-69
2022/05/21 14:32:10;;;;;;;;;;;24.70;49.10;;;;;;4992371;28;19933;-69
2022/05/21 14:34:38;;;;;;;;;;;24.80;49.60;;;;;;5003845;28;19934;-70
2022/05/21 14:37:05;;;;;;;;;;;24.80;49.70;;;;;;4994433;28;19937;-71
2022/05/21 14:39:31;;;;;;;;;;;24.90;48.60;;;;;;5003767;28;19930;-69
2022/05/21 14:41:59;;;;;;;;;;;24.90;48.60;;;;;;4998491;28;19936;-67
2022/05/21 14:44:26;;;;;;;;;;;24.90;48.60;;;;;;4997430;28;20333;-69
2022/05/21 14:49:39;;;;;;;;;;;24.90;47.70;;;;;;4999953;28;19932;-69
2022/05/21 14:54:53;;;;;;;;;;;25.00;48.20;;;;;;4996689;28;19936;-71
2022/05/21 14:57:19;;;;;;;;;;;25.00;48.10;;;;;;5001213;28;19934;-69
2022/05/21 14:59:47;;;;;;;;;;;25.00;48.40;;;;;;4995110;28;19929;-70
2022/05/21 15:02:14;;;;;;;;;;;25.00;48.10;;;;;;4997664;28;19969;-69
2022/05/21 15:04:42;;;;;;;;;;;24.90;48.10;;;;;;4999906;28;19936;-69